Time,TemperatureF,DewpointF,PressureIn,WindDirection,WindDirectionDegrees,WindSpeedMPH,WindSpeedGustMPH,Humidity,HourlyPrecipIn,Conditions,Clouds,dailyrainin,SoftwareType,DateUTC
2013-01-06 14:12:00,66.0,28.0,30.03,WSW,250,4.0,6.0,24,0.00,,,0.00,,2013-01-06 21:12:00,
2013-01-06 14:22:00,68.0,34.0,30.02,NW,309,9.0,14.0,28,0.00,,,0.00,,2013-01-06 21:22:00,
2013-01-06 14:42:00,66.0,32.0,30.02,WNW,299,3.0,9.0,28,0.00,,,0.00,,2013-01-06 21:42:00,
2013-01-06 14:53:00,66.0,33.0,30.01,West,273,7.0,10.0,29,0.00,,,0.00,,2013-01-06 21:53:00,
2013-01-06 15:01:00,66.0,33.0,30.01,WNW,300,3.0,6.0,29,0.00,,,0.00,,2013-01-06 22:01:00,
2013-01-06 15:12:00,66.0,33.0,30.01,WNW,300,3.0,6.0,29,0.00,,,0.00,,2013-01-06 22:12:00,
2013-01-06 15:22:00,66.0,34.0,30.00,West,280,6.0,11.0,31,0.00,,,0.00,,2013-01-06 22:22:00,
2013-01-06 15:32:00,66.0,35.0,30.00,WNW,292,5.0,13.0,32,0.00,,,0.00,,2013-01-06 22:32:00,
2013-01-06 15:42:00,66.0,35.0,30.00,WNW,292,5.0,13.0,32,0.00,,,0.00,,2013-01-06 22:42:00,
2013-01-06 15:52:00,65.0,37.0,30.01,West,280,7.0,13.0,35,0.00,,,0.00,,2013-01-06 22:52:00,
2013-01-06 16:02:00,65.0,37.0,30.00,NW,309,7.0,13.0,35,0.00,,,0.00,,2013-01-06 23:02:00,
2013-01-06 16:12:00,65.0,37.0,30.00,NW,309,7.0,13.0,35,0.00,,,0.00,,2013-01-06 23:12:00,
2013-01-06 16:22:00,64.0,36.0,30.01,WNW,294,10.0,13.0,35,0.00,,,0.00,,2013-01-06 23:22:00,
2013-01-06 16:32:00,64.0,37.0,30.01,NW,321,8.0,13.0,36,0.00,,,0.00,,2013-01-06 23:32:00,
2013-01-06 16:42:00,64.0,37.0,30.01,NW,321,8.0,13.0,36,0.00,,,0.00,,2013-01-06 23:42:00,
2013-01-06 16:53:00,63.0,36.0,30.01,WNW,292,6.0,9.0,36,0.00,,,0.00,,2013-01-06 23:53:00,
2013-01-06 17:02:00,63.0,36.0,30.01,NW,322,4.0,7.0,36,0.00,,,0.00,,2013-01-07 00:02:00,
2013-01-06 17:11:00,63.0,36.0,30.01,NW,322,4.0,7.0,36,0.00,,,0.00,,2013-01-07 00:11:00,
2013-01-06 17:22:00,62.0,35.0,30.00,WNW,303,2.0,6.0,36,0.00,,,0.00,,2013-01-07 00:22:00,
2013-01-06 17:32:00,61.0,32.0,30.00,West,266,6.0,15.0,34,0.00,,,0.00,,2013-01-07 00:32:00,
2013-01-06 17:42:00,61.0,32.0,30.00,West,266,6.0,15.0,34,0.00,,,0.00,,2013-01-07 00:42:00,
2013-01-06 17:53:00,61.0,32.0,30.00,NW,314,5.0,8.0,34,0.00,,,0.00,,2013-01-07 00:53:00,
2013-01-06 18:02:00,60.0,32.0,30.00,WNW,300,3.0,5.0,35,0.00,,,0.00,,2013-01-07 01:02:00,
2013-01-06 18:11:00,60.0,32.0,30.00,WNW,300,3.0,5.0,35,0.00,,,0.00,,2013-01-07 01:11:00,
2013-01-06 18:22:00,61.0,33.0,29.98,WNW,282,4.0,6.0,35,0.00,,,0.00,,2013-01-07 01:22:00,
2013-01-06 18:32:00,61.0,33.0,29.98,West,277,2.0,6.0,35,0.00,,,0.00,,2013-01-07 01:32:00,
2013-01-06 18:42:00,61.0,33.0,29.98,West,277,2.0,6.0,35,0.00,,,0.00,,2013-01-07 01:42:00,
2013-01-06 18:52:00,61.0,34.0,29.99,WNW,284,3.0,11.0,36,0.00,,,0.00,,2013-01-07 01:52:00,
2013-01-06 19:01:00,61.0,34.0,29.98,WNW,287,3.0,5.0,36,0.00,,,0.00,,2013-01-07 02:01:00,
2013-01-06 19:11:00,61.0,34.0,29.98,WNW,287,3.0,5.0,36,0.00,,,0.00,,2013-01-07 02:11:00,
2013-01-06 19:22:00,60.0,34.0,29.99,West,263,4.0,6.0,37,0.00,,,0.00,,2013-01-07 02:22:00,
2013-01-06 19:32:00,60.0,34.0,30.00,West,270,4.0,8.0,37,0.00,,,0.00,,2013-01-07 02:32:00,
2013-01-06 19:42:00,60.0,34.0,30.00,West,270,4.0,8.0,37,0.00,,,0.00,,2013-01-07 02:42:00,
2013-01-06 19:53:00,59.0,35.0,30.00,WNW,285,5.0,10.0,40,0.00,,,0.00,,2013-01-07 02:53:00,
2013-01-06 20:02:00,58.0,34.0,30.00,West,280,8.0,11.0,41,0.00,,,0.00,,2013-01-07 03:02:00,
2013-01-06 20:11:00,58.0,34.0,30.00,West,280,8.0,11.0,41,0.00,,,0.00,,2013-01-07 03:11:00,
2013-01-06 20:22:00,57.0,35.0,29.99,WNW,303,7.0,13.0,43,0.00,,,0.00,,2013-01-07 03:22:00,
2013-01-06 20:32:00,57.0,35.0,29.99,WSW,250,4.0,10.0,44,0.00,,,0.00,,2013-01-07 03:32:00,
2013-01-06 20:42:00,57.0,35.0,29.99,WSW,250,4.0,10.0,44,0.00,,,0.00,,2013-01-07 03:42:00,
2013-01-06 20:52:00,58.0,36.0,29.99,West,270,6.0,7.0,43,0.00,,,0.00,,2013-01-07 03:52:00,
2013-01-06 21:02:00,58.0,36.0,29.98,West,270,3.0,5.0,43,0.00,,,0.00,,2013-01-07 04:02:00,
2013-01-06 21:12:00,58.0,36.0,29.98,West,270,3.0,5.0,43,0.00,,,0.00,,2013-01-07 04:12:00,
2013-01-06 21:22:00,58.0,36.0,29.99,West,267,3.0,4.0,43,0.00,,,0.00,,2013-01-07 04:22:00,
2013-01-06 21:32:00,56.0,35.0,29.99,West,261,6.0,8.0,45,0.00,,,0.00,,2013-01-07 04:32:00,
2013-01-06 21:42:00,56.0,35.0,29.99,West,261,6.0,8.0,45,0.00,,,0.00,,2013-01-07 04:42:00,
2013-01-06 21:52:00,53.0,35.0,29.99,West,268,5.0,6.0,50,0.00,,,0.00,,2013-01-07 04:52:00,
2013-01-06 22:02:00,52.0,34.0,29.98,West,274,2.0,4.0,51,0.00,,,0.00,,2013-01-07 05:02:00,
2013-01-06 22:12:00,52.0,34.0,29.98,West,274,2.0,4.0,51,0.00,,,0.00,,2013-01-07 05:12:00,
2013-01-06 22:22:00,51.0,34.0,29.99,West,276,3.0,5.0,52,0.00,,,0.00,,2013-01-07 05:22:00,
2013-01-06 22:32:00,51.0,34.0,29.99,West,274,6.0,6.0,53,0.00,,,0.00,,2013-01-07 05:32:00,
2013-01-06 22:42:00,51.0,34.0,29.99,West,274,6.0,6.0,53,0.00,,,0.00,,2013-01-07 05:42:00,
2013-01-06 22:52:00,51.0,34.0,29.98,West,276,7.0,10.0,53,0.00,,,0.00,,2013-01-07 05:52:00,
2013-01-06 23:02:00,51.0,34.0,29.98,SW,236,7.0,9.0,53,0.00,,,0.00,,2013-01-07 06:02:00,
2013-01-06 23:12:00,51.0,34.0,29.98,SW,236,7.0,9.0,53,0.00,,,0.00,,2013-01-07 06:12:00,
2013-01-06 23:22:00,51.0,35.0,29.99,NW,309,5.0,8.0,55,0.00,,,0.00,,2013-01-07 06:22:00,
2013-01-06 23:32:00,50.0,34.0,29.98,WNW,288,5.0,8.0,55,0.00,,,0.00,,2013-01-07 06:32:00,
2013-01-06 23:42:00,50.0,34.0,29.98,WNW,288,5.0,8.0,55,0.00,,,0.00,,2013-01-07 06:42:00,
2013-01-06 23:52:00,50.0,34.0,29.98,WNW,286,4.0,6.0,55,0.00,,,0.00,,2013-01-07 06:52:00,